sensor_id;sensor_type;location;lat;lon;timestamp;temperature;humidity
30063;DHT22;16889;67.864;24.990;2023-05-29T00:00:42;5.30;99.90
30063;DHT22;16889;67.864;24.990;2023-05-29T00:05:28;5.30;99.90
30063;DHT22;16889;67.864;24.990;2023-05-29T00:10:14;5.20;99.90
30063;DHT22;16889;67.864;24.990;2023-05-29T00:15:01;5.30;99.90
30063;DHT22;16889;67.864;24.990;2023-05-29T00:19:49;5.40;99.90
30063;DHT22;16889;67.864;24.990;2023-05-29T00:24:35;5.40;99.90
30063;DHT22;16889;67.864;24.990;2023-05-29T00:29:21;5.30;99.90
30063;DHT22;16889;67.864;24.990;2023-05-29T00:34:07;5.30;99.90
30063;DHT22;16889;67.864;24.990;2023-05-29T00:38:53;5.20;99.90
30063;DHT22;16889;67.864;24.990;2023-05-29T00:43:39;5.10;99.90
30063;DHT22;16889;67.864;24.990;2023-05-29T00:48:26;5.00;99.90
30063;DHT22;16889;67.864;24.990;2023-05-29T00:53:13;4.90;99.90
30063;DHT22;16889;67.864;24.990;2023-05-29T00:57:59;4.80;99.90
30063;DHT22;16889;67.864;24.990;2023-05-29T01:02:45;5.00;99.90
30063;DHT22;16889;67.864;24.990;2023-05-29T01:07:33;5.00;99.90
30063;DHT22;16889;67.864;24.990;2023-05-29T01:12:49;4.90;99.90
30063;DHT22;16889;67.864;24.990;2023-05-29T01:17:57;4.80;99.90
30063;DHT22;16889;67.864;24.990;2023-05-29T01:27:45;4.80;99.90
30063;DHT22;16889;67.864;24.990;2023-05-29T01:32:33;4.90;99.90
30063;DHT22;16889;67.864;24.990;2023-05-29T01:37:19;5.20;99.90
30063;DHT22;16889;67.864;24.990;2023-05-29T01:42:06;5.20;99.90
30063;DHT22;16889;67.864;24.990;2023-05-29T01:46:53;5.20;99.90
30063;DHT22;16889;67.864;24.990;2023-05-29T01:51:43;5.20;99.90
30063;DHT22;16889;67.864;24.990;2023-05-29T01:56:30;5.20;99.90
30063;DHT22;16889;67.864;24.990;2023-05-29T02:01:16;5.20;99.90
30063;DHT22;16889;67.864;24.990;2023-05-29T02:06:02;5.30;99.90
30063;DHT22;16889;67.864;24.990;2023-05-29T02:10:48;5.30;99.90
30063;DHT22;16889;67.864;24.990;2023-05-29T02:15:34;5.20;99.90
30063;DHT22;16889;67.864;24.990;2023-05-29T02:20:21;5.20;99.90
30063;DHT22;16889;67.864;24.990;2023-05-29T02:25:08;5.20;99.90
30063;DHT22;16889;67.864;24.990;2023-05-29T02:29:54;5.20;99.90
30063;DHT22;16889;67.864;24.990;2023-05-29T02:34:40;5.20;99.90
30063;DHT22;16889;67.864;24.990;2023-05-29T02:39:26;5.20;99.90
30063;DHT22;16889;67.864;24.990;2023-05-29T02:44:12;5.30;99.90
30063;DHT22;16889;67.864;24.990;2023-05-29T02:48:58;5.60;99.90
30063;DHT22;16889;67.864;24.990;2023-05-29T02:53:44;6.00;99.90
30063;DHT22;16889;67.864;24.990;2023-05-29T02:58:30;6.40;99.90
30063;DHT22;16889;67.864;24.990;2023-05-29T03:03:18;7.30;99.90
30063;DHT22;16889;67.864;24.990;2023-05-29T03:08:05;7.40;99.90
30063;DHT22;16889;67.864;24.990;2023-05-29T03:12:51;7.40;99.90
30063;DHT22;16889;67.864;24.990;2023-05-29T03:17:37;7.50;99.90
30063;DHT22;16889;67.864;24.990;2023-05-29T03:22:24;7.60;99.90
30063;DHT22;16889;67.864;24.990;2023-05-29T03:27:10;8.20;99.90
30063;DHT22;16889;67.864;24.990;2023-05-29T03:31:56;8.50;99.90
30063;DHT22;16889;67.864;24.990;2023-05-29T03:36:42;8.50;99.90
30063;DHT22;16889;67.864;24.990;2023-05-29T03:41:28;8.80;99.90
30063;DHT22;16889;67.864;24.990;2023-05-29T03:46:14;9.00;99.90
30063;DHT22;16889;67.864;24.990;2023-05-29T03:51:00;9.30;99.90
30063;DHT22;16889;67.864;24.990;2023-05-29T03:55:46;10.10;99.90
30063;DHT22;16889;67.864;24.990;2023-05-29T04:00:32;11.10;99.90
30063;DHT22;16889;67.864;24.990;2023-05-29T04:05:18;11.50;99.90
30063;DHT22;16889;67.864;24.990;2023-05-29T04:10:05;11.30;99.90
30063;DHT22;16889;67.864;24.990;2023-05-29T04:14:52;11.30;99.60
30063;DHT22;16889;67.864;24.990;2023-05-29T04:19:38;11.90;98.20
30063;DHT22;16889;67.864;24.990;2023-05-29T04:24:23;11.70;97.10
30063;DHT22;16889;67.864;24.990;2023-05-29T04:29:11;11.10;98.10
30063;DHT22;16889;67.864;24.990;2023-05-29T04:33:58;10.70;99.80
30063;DHT22;16889;67.864;24.990;2023-05-29T04:38:46;10.10;99.90
30063;DHT22;16889;67.864;24.990;2023-05-29T04:43:33;9.90;99.90
30063;DHT22;16889;67.864;24.990;2023-05-29T04:48:22;9.70;99.90
30063;DHT22;16889;67.864;24.990;2023-05-29T04:53:08;9.40;99.90
30063;DHT22;16889;67.864;24.990;2023-05-29T04:57:54;9.40;99.90
30063;DHT22;16889;67.864;24.990;2023-05-29T05:02:44;9.40;99.90
30063;DHT22;16889;67.864;24.990;2023-05-29T05:07:30;9.40;99.90
30063;DHT22;16889;67.864;24.990;2023-05-29T05:12:16;9.60;99.90
30063;DHT22;16889;67.864;24.990;2023-05-29T05:17:02;10.00;99.90
30063;DHT22;16889;67.864;24.990;2023-05-29T05:21:48;10.40;99.90
30063;DHT22;16889;67.864;24.990;2023-05-29T05:26:34;10.70;99.90
30063;DHT22;16889;67.864;24.990;2023-05-29T05:31:20;10.70;99.90
30063;DHT22;16889;67.864;24.990;2023-05-29T05:36:07;10.50;99.90
30063;DHT22;16889;67.864;24.990;2023-05-29T05:40:53;10.60;99.90
30063;DHT22;16889;67.864;24.990;2023-05-29T05:45:39;10.70;99.90
30063;DHT22;16889;67.864;24.990;2023-05-29T05:50:27;10.80;99.90
30063;DHT22;16889;67.864;24.990;2023-05-29T05:55:13;10.80;99.90
30063;DHT22;16889;67.864;24.990;2023-05-29T06:00:00;10.60;99.90
30063;DHT22;16889;67.864;24.990;2023-05-29T06:04:45;10.40;99.90
30063;DHT22;16889;67.864;24.990;2023-05-29T06:09:32;10.50;99.90
30063;DHT22;16889;67.864;24.990;2023-05-29T06:14:17;10.60;99.90
30063;DHT22;16889;67.864;24.990;2023-05-29T06:19:03;10.50;99.90
30063;DHT22;16889;67.864;24.990;2023-05-29T06:23:50;10.10;99.90
30063;DHT22;16889;67.864;24.990;2023-05-29T06:28:35;9.90;99.90
30063;DHT22;16889;67.864;24.990;2023-05-29T06:33:22;9.60;99.90
30063;DHT22;16889;67.864;24.990;2023-05-29T06:38:09;9.70;99.90
30063;DHT22;16889;67.864;24.990;2023-05-29T06:42:55;9.70;99.90
30063;DHT22;16889;67.864;24.990;2023-05-29T06:47:42;10.00;99.90
30063;DHT22;16889;67.864;24.990;2023-05-29T06:52:28;10.20;99.90
30063;DHT22;16889;67.864;24.990;2023-05-29T06:57:14;10.50;99.90
30063;DHT22;16889;67.864;24.990;2023-05-29T07:02:00;11.00;99.90
30063;DHT22;16889;67.864;24.990;2023-05-29T07:06:46;11.90;98.00
30063;DHT22;16889;67.864;24.990;2023-05-29T07:11:32;11.60;96.80
30063;DHT22;16889;67.864;24.990;2023-05-29T07:16:18;11.70;96.70
30063;DHT22;16889;67.864;24.990;2023-05-29T07:21:04;13.00;94.20
30063;DHT22;16889;67.864;24.990;2023-05-29T07:25:51;13.40;94.00
30063;DHT22;16889;67.864;24.990;2023-05-29T07:30:37;13.00;94.10
30063;DHT22;16889;67.864;24.990;2023-05-29T07:35:24;13.80;91.80
30063;DHT22;16889;67.864;24.990;2023-05-29T07:40:10;14.70;91.10
30063;DHT22;16889;67.864;24.990;2023-05-29T07:44:56;16.70;80.20
30063;DHT22;16889;67.864;24.990;2023-05-29T07:49:42;16.80;67.70
30063;DHT22;16889;67.864;24.990;2023-05-29T07:54:29;14.90;71.80
30063;DHT22;16889;67.864;24.990;2023-05-29T07:59:15;13.40;75.70
30063;DHT22;16889;67.864;24.990;2023-05-29T08:04:02;12.10;81.40
30063;DHT22;16889;67.864;24.990;2023-05-29T08:08:48;12.80;78.80
30063;DHT22;16889;67.864;24.990;2023-05-29T08:13:34;14.20;76.40
30063;DHT22;16889;67.864;24.990;2023-05-29T08:18:20;14.80;69.60
30063;DHT22;16889;67.864;24.990;2023-05-29T08:23:06;14.00;74.30
30063;DHT22;16889;67.864;24.990;2023-05-29T08:27:52;16.10;68.50
30063;DHT22;16889;67.864;24.990;2023-05-29T08:32:38;19.30;57.80
30063;DHT22;16889;67.864;24.990;2023-05-29T08:37:24;18.10;56.40
30063;DHT22;16889;67.864;24.990;2023-05-29T08:42:21;15.80;59.80
30063;DHT22;16889;67.864;24.990;2023-05-29T08:47:08;14.20;67.40
30063;DHT22;16889;67.864;24.990;2023-05-29T08:52:10;14.80;67.80
30063;DHT22;16889;67.864;24.990;2023-05-29T08:56:57;15.50;63.80
30063;DHT22;16889;67.864;24.990;2023-05-29T09:01:44;15.50;63.70
30063;DHT22;16889;67.864;24.990;2023-05-29T09:06:30;14.40;63.10
30063;DHT22;16889;67.864;24.990;2023-05-29T09:11:16;13.30;66.20
30063;DHT22;16889;67.864;24.990;2023-05-29T09:16:02;13.00;68.00
30063;DHT22;16889;67.864;24.990;2023-05-29T09:20:49;12.40;73.20
30063;DHT22;16889;67.864;24.990;2023-05-29T09:25:41;12.50;75.60
30063;DHT22;16889;67.864;24.990;2023-05-29T09:30:36;12.80;72.50
30063;DHT22;16889;67.864;24.990;2023-05-29T09:35:22;13.30;70.70
30063;DHT22;16889;67.864;24.990;2023-05-29T09:40:11;13.20;70.80
30063;DHT22;16889;67.864;24.990;2023-05-29T09:44:57;13.50;69.50
30063;DHT22;16889;67.864;24.990;2023-05-29T09:49:46;14.00;66.70
30063;DHT22;16889;67.864;24.990;2023-05-29T09:54:32;16.70;64.70
30063;DHT22;16889;67.864;24.990;2023-05-29T09:59:20;17.60;58.20
30063;DHT22;16889;67.864;24.990;2023-05-29T10:04:09;13.90;64.60
30063;DHT22;16889;67.864;24.990;2023-05-29T10:08:56;12.00;74.50
30063;DHT22;16889;67.864;24.990;2023-05-29T10:13:45;11.30;76.20
30063;DHT22;16889;67.864;24.990;2023-05-29T10:18:39;11.40;76.70
30063;DHT22;16889;67.864;24.990;2023-05-29T10:23:26;12.40;74.60
30063;DHT22;16889;67.864;24.990;2023-05-29T10:28:14;13.60;66.70
30063;DHT22;16889;67.864;24.990;2023-05-29T10:33:33;12.50;71.00
30063;DHT22;16889;67.864;24.990;2023-05-29T10:38:24;11.90;73.70
30063;DHT22;16889;67.864;24.990;2023-05-29T10:43:31;11.80;74.00
30063;DHT22;16889;67.864;24.990;2023-05-29T10:53:07;12.00;76.20
30063;DHT22;16889;67.864;24.990;2023-05-29T10:57:55;11.40;80.70
30063;DHT22;16889;67.864;24.990;2023-05-29T11:02:41;11.50;78.90
30063;DHT22;16889;67.864;24.990;2023-05-29T11:07:51;12.70;76.80
30063;DHT22;16889;67.864;24.990;2023-05-29T11:12:56;12.60;71.00
30063;DHT22;16889;67.864;24.990;2023-05-29T11:17:44;13.00;70.80
30063;DHT22;16889;67.864;24.990;2023-05-29T11:27:34;13.20;72.30
30063;DHT22;16889;67.864;24.990;2023-05-29T11:32:22;12.70;75.20
30063;DHT22;16889;67.864;24.990;2023-05-29T11:37:11;12.00;84.50
30063;DHT22;16889;67.864;24.990;2023-05-29T11:41:57;12.00;84.00
30063;DHT22;16889;67.864;24.990;2023-05-29T11:46:43;12.50;82.80
30063;DHT22;16889;67.864;24.990;2023-05-29T11:51:31;13.20;71.80
30063;DHT22;16889;67.864;24.990;2023-05-29T11:56:17;12.60;72.20
30063;DHT22;16889;67.864;24.990;2023-05-29T12:01:03;12.40;70.20
30063;DHT22;16889;67.864;24.990;2023-05-29T12:05:49;12.50;69.80
30063;DHT22;16889;67.864;24.990;2023-05-29T12:10:42;12.90;70.90
30063;DHT22;16889;67.864;24.990;2023-05-29T12:15:31;12.80;68.00
30063;DHT22;16889;67.864;24.990;2023-05-29T12:20:18;12.80;67.20
30063;DHT22;16889;67.864;24.990;2023-05-29T12:30:01;12.80;67.60
30063;DHT22;16889;67.864;24.990;2023-05-29T12:34:51;12.70;67.30
30063;DHT22;16889;67.864;24.990;2023-05-29T12:39:37;12.80;66.80
30063;DHT22;16889;67.864;24.990;2023-05-29T12:44:23;12.70;65.00
30063;DHT22;16889;67.864;24.990;2023-05-29T12:49:16;12.20;72.40
30063;DHT22;16889;67.864;24.990;2023-05-29T12:54:03;11.60;77.90
30063;DHT22;16889;67.864;24.990;2023-05-29T12:58:50;11.10;82.30
30063;DHT22;16889;67.864;24.990;2023-05-29T13:03:36;11.10;84.40
30063;DHT22;16889;67.864;24.990;2023-05-29T13:08:22;10.80;83.20
30063;DHT22;16889;67.864;24.990;2023-05-29T13:13:09;10.80;85.10
30063;DHT22;16889;67.864;24.990;2023-05-29T13:17:57;10.80;83.00
30063;DHT22;16889;67.864;24.990;2023-05-29T13:22:45;10.90;86.10
30063;DHT22;16889;67.864;24.990;2023-05-29T13:27:31;11.30;86.30
30063;DHT22;16889;67.864;24.990;2023-05-29T13:32:17;11.20;83.60
30063;DHT22;16889;67.864;24.990;2023-05-29T13:37:03;10.90;85.80
30063;DHT22;16889;67.864;24.990;2023-05-29T13:41:50;10.80;85.70
30063;DHT22;16889;67.864;24.990;2023-05-29T13:46:36;10.80;88.70
30063;DHT22;16889;67.864;24.990;2023-05-29T13:51:22;10.70;89.00
30063;DHT22;16889;67.864;24.990;2023-05-29T13:56:08;10.50;92.10
30063;DHT22;16889;67.864;24.990;2023-05-29T14:00:54;10.60;92.90
30063;DHT22;16889;67.864;24.990;2023-05-29T14:05:41;10.60;92.90
30063;DHT22;16889;67.864;24.990;2023-05-29T14:10:27;10.50;91.40
30063;DHT22;16889;67.864;24.990;2023-05-29T14:15:13;10.60;91.20
30063;DHT22;16889;67.864;24.990;2023-05-29T14:19:59;10.80;90.80
30063;DHT22;16889;67.864;24.990;2023-05-29T14:24:49;10.70;90.30
30063;DHT22;16889;67.864;24.990;2023-05-29T14:29:35;10.80;88.80
30063;DHT22;16889;67.864;24.990;2023-05-29T14:34:21;10.80;90.50
30063;DHT22;16889;67.864;24.990;2023-05-29T14:39:07;10.80;90.60
30063;DHT22;16889;67.864;24.990;2023-05-29T14:43:53;11.20;89.70
30063;DHT22;16889;67.864;24.990;2023-05-29T14:48:43;11.20;86.80
30063;DHT22;16889;67.864;24.990;2023-05-29T14:53:29;11.40;89.20
30063;DHT22;16889;67.864;24.990;2023-05-29T14:58:17;11.60;90.10
30063;DHT22;16889;67.864;24.990;2023-05-29T15:03:03;11.50;88.20
30063;DHT22;16889;67.864;24.990;2023-05-29T15:07:49;11.30;90.30
30063;DHT22;16889;67.864;24.990;2023-05-29T15:12:35;11.40;91.60
30063;DHT22;16889;67.864;24.990;2023-05-29T15:17:21;11.20;93.30
30063;DHT22;16889;67.864;24.990;2023-05-29T15:22:07;10.70;96.40
30063;DHT22;16889;67.864;24.990;2023-05-29T15:26:53;10.00;97.60
30063;DHT22;16889;67.864;24.990;2023-05-29T15:31:39;9.90;99.90
30063;DHT22;16889;67.864;24.990;2023-05-29T15:36:25;10.20;99.90
30063;DHT22;16889;67.864;24.990;2023-05-29T15:41:11;10.50;99.90
30063;DHT22;16889;67.864;24.990;2023-05-29T15:45:57;11.30;94.30
30063;DHT22;16889;67.864;24.990;2023-05-29T15:50:43;12.10;94.00
30063;DHT22;16889;67.864;24.990;2023-05-29T15:55:29;12.70;85.90
30063;DHT22;16889;67.864;24.990;2023-05-29T16:00:15;12.70;80.70
30063;DHT22;16889;67.864;24.990;2023-05-29T16:05:02;12.40;77.10
30063;DHT22;16889;67.864;24.990;2023-05-29T16:09:48;12.40;73.60
30063;DHT22;16889;67.864;24.990;2023-05-29T16:14:34;12.00;76.80
30063;DHT22;16889;67.864;24.990;2023-05-29T16:19:19;11.90;79.30
30063;DHT22;16889;67.864;24.990;2023-05-29T16:24:06;11.90;74.40
30063;DHT22;16889;67.864;24.990;2023-05-29T16:28:53;11.90;71.90
30063;DHT22;16889;67.864;24.990;2023-05-29T16:33:39;11.70;71.80
30063;DHT22;16889;67.864;24.990;2023-05-29T16:38:25;11.60;74.30
30063;DHT22;16889;67.864;24.990;2023-05-29T16:43:11;11.40;69.30
30063;DHT22;16889;67.864;24.990;2023-05-29T16:47:57;11.30;69.20
30063;DHT22;16889;67.864;24.990;2023-05-29T16:52:43;11.30;68.30
30063;DHT22;16889;67.864;24.990;2023-05-29T16:57:29;11.30;69.40
30063;DHT22;16889;67.864;24.990;2023-05-29T17:02:15;11.30;70.40
30063;DHT22;16889;67.864;24.990;2023-05-29T17:07:01;11.10;77.60
30063;DHT22;16889;67.864;24.990;2023-05-29T17:11:47;11.00;78.60
30063;DHT22;16889;67.864;24.990;2023-05-29T17:16:33;11.00;78.70
30063;DHT22;16889;67.864;24.990;2023-05-29T17:21:19;10.90;78.00
30063;DHT22;16889;67.864;24.990;2023-05-29T17:26:05;10.70;78.20
30063;DHT22;16889;67.864;24.990;2023-05-29T17:30:51;10.50;79.30
30063;DHT22;16889;67.864;24.990;2023-05-29T17:35:37;10.60;80.60
30063;DHT22;16889;67.864;24.990;2023-05-29T17:40:24;10.60;79.80
30063;DHT22;16889;67.864;24.990;2023-05-29T17:45:10;10.60;80.00
30063;DHT22;16889;67.864;24.990;2023-05-29T17:49:57;10.60;79.70
30063;DHT22;16889;67.864;24.990;2023-05-29T17:54:45;10.60;76.90
30063;DHT22;16889;67.864;24.990;2023-05-29T17:59:31;10.60;79.00
30063;DHT22;16889;67.864;24.990;2023-05-29T18:04:17;10.30;79.90
30063;DHT22;16889;67.864;24.990;2023-05-29T18:09:03;10.30;79.50
30063;DHT22;16889;67.864;24.990;2023-05-29T18:13:49;10.40;81.00
30063;DHT22;16889;67.864;24.990;2023-05-29T18:18:36;10.40;81.40
30063;DHT22;16889;67.864;24.990;2023-05-29T18:23:22;10.40;81.50
30063;DHT22;16889;67.864;24.990;2023-05-29T18:28:08;10.20;83.10
30063;DHT22;16889;67.864;24.990;2023-05-29T18:32:54;10.10;82.50
30063;DHT22;16889;67.864;24.990;2023-05-29T18:37:43;10.00;83.00
30063;DHT22;16889;67.864;24.990;2023-05-29T18:42:29;9.80;86.20
30063;DHT22;16889;67.864;24.990;2023-05-29T18:47:15;9.60;85.60
30063;DHT22;16889;67.864;24.990;2023-05-29T18:52:01;9.60;88.60
30063;DHT22;16889;67.864;24.990;2023-05-29T18:56:48;9.50;88.50
30063;DHT22;16889;67.864;24.990;2023-05-29T19:01:34;9.30;90.60
30063;DHT22;16889;67.864;24.990;2023-05-29T19:06:20;9.20;90.00
30063;DHT22;16889;67.864;24.990;2023-05-29T19:11:06;9.10;89.60
30063;DHT22;16889;67.864;24.990;2023-05-29T19:15:52;8.80;88.80
30063;DHT22;16889;67.864;24.990;2023-05-29T19:20:38;8.90;91.30
30063;DHT22;16889;67.864;24.990;2023-05-29T19:25:26;8.90;91.90
30063;DHT22;16889;67.864;24.990;2023-05-29T19:30:14;8.80;93.00
30063;DHT22;16889;67.864;24.990;2023-05-29T19:35:00;8.80;94.40
30063;DHT22;16889;67.864;24.990;2023-05-29T19:39:48;9.00;95.10
30063;DHT22;16889;67.864;24.990;2023-05-29T19:44:39;8.80;95.90
30063;DHT22;16889;67.864;24.990;2023-05-29T19:49:25;8.60;97.10
30063;DHT22;16889;67.864;24.990;2023-05-29T19:54:11;8.40;97.70
30063;DHT22;16889;67.864;24.990;2023-05-29T19:58:57;8.40;98.70
30063;DHT22;16889;67.864;24.990;2023-05-29T20:03:43;8.40;97.70
30063;DHT22;16889;67.864;24.990;2023-05-29T20:08:29;8.40;98.40
30063;DHT22;16889;67.864;24.990;2023-05-29T20:13:15;8.50;97.00
30063;DHT22;16889;67.864;24.990;2023-05-29T20:18:01;8.30;96.90
30063;DHT22;16889;67.864;24.990;2023-05-29T20:22:47;8.40;96.60
30063;DHT22;16889;67.864;24.990;2023-05-29T20:27:33;8.40;96.00
30063;DHT22;16889;67.864;24.990;2023-05-29T20:32:19;8.40;96.20
30063;DHT22;16889;67.864;24.990;2023-05-29T20:37:05;8.30;97.10
30063;DHT22;16889;67.864;24.990;2023-05-29T20:41:52;8.30;98.00
30063;DHT22;16889;67.864;24.990;2023-05-29T20:46:40;8.10;98.90
30063;DHT22;16889;67.864;24.990;2023-05-29T20:51:26;8.00;99.80
30063;DHT22;16889;67.864;24.990;2023-05-29T20:56:12;7.90;99.90
30063;DHT22;16889;67.864;24.990;2023-05-29T21:00:59;7.70;99.90
30063;DHT22;16889;67.864;24.990;2023-05-29T21:05:47;7.50;99.90
30063;DHT22;16889;67.864;24.990;2023-05-29T21:10:33;7.30;99.90
30063;DHT22;16889;67.864;24.990;2023-05-29T21:15:20;7.20;99.90
30063;DHT22;16889;67.864;24.990;2023-05-29T21:20:06;6.60;99.90
30063;DHT22;16889;67.864;24.990;2023-05-29T21:24:53;6.50;99.90
30063;DHT22;16889;67.864;24.990;2023-05-29T21:29:39;6.50;99.90
30063;DHT22;16889;67.864;24.990;2023-05-29T21:34:25;6.30;99.90
30063;DHT22;16889;67.864;24.990;2023-05-29T21:39:11;6.20;99.90
30063;DHT22;16889;67.864;24.990;2023-05-29T21:43:57;5.90;99.90
30063;DHT22;16889;67.864;24.990;2023-05-29T21:48:43;5.60;99.90
30063;DHT22;16889;67.864;24.990;2023-05-29T21:53:29;5.50;99.90
30063;DHT22;16889;67.864;24.990;2023-05-29T21:58:15;5.20;99.90
30063;DHT22;16889;67.864;24.990;2023-05-29T22:03:01;5.20;99.90
30063;DHT22;16889;67.864;24.990;2023-05-29T22:07:47;5.50;99.90
30063;DHT22;16889;67.864;24.990;2023-05-29T22:12:33;5.90;99.90
30063;DHT22;16889;67.864;24.990;2023-05-29T22:17:22;6.00;99.90
30063;DHT22;16889;67.864;24.990;2023-05-29T22:22:09;6.00;99.90
30063;DHT22;16889;67.864;24.990;2023-05-29T22:26:55;5.90;99.90
30063;DHT22;16889;67.864;24.990;2023-05-29T22:31:41;6.00;99.90
30063;DHT22;16889;67.864;24.990;2023-05-29T22:36:27;5.80;99.90
30063;DHT22;16889;67.864;24.990;2023-05-29T22:41:13;5.70;99.90
30063;DHT22;16889;67.864;24.990;2023-05-29T22:46:00;5.60;99.90
30063;DHT22;16889;67.864;24.990;2023-05-29T22:50:46;5.50;99.90
30063;DHT22;16889;67.864;24.990;2023-05-29T22:55:32;5.50;99.90
30063;DHT22;16889;67.864;24.990;2023-05-29T23:00:21;5.50;99.90
30063;DHT22;16889;67.864;24.990;2023-05-29T23:05:08;5.40;99.90
30063;DHT22;16889;67.864;24.990;2023-05-29T23:09:54;5.20;99.90
30063;DHT22;16889;67.864;24.990;2023-05-29T23:14:40;5.10;99.90
30063;DHT22;16889;67.864;24.990;2023-05-29T23:19:26;5.00;99.90
30063;DHT22;16889;67.864;24.990;2023-05-29T23:24:12;4.90;99.90
30063;DHT22;16889;67.864;24.990;2023-05-29T23:28:59;4.90;99.90
30063;DHT22;16889;67.864;24.990;2023-05-29T23:33:45;4.80;99.90
30063;DHT22;16889;67.864;24.990;2023-05-29T23:38:32;4.80;99.90
30063;DHT22;16889;67.864;24.990;2023-05-29T23:43:18;4.80;99.90
30063;DHT22;16889;67.864;24.990;2023-05-29T23:48:04;4.60;99.90
30063;DHT22;16889;67.864;24.990;2023-05-29T23:52:51;4.30;99.90
30063;DHT22;16889;67.864;24.990;2023-05-29T23:57:37;4.10;99.90
